createdAt,value
2019-06-01T00:00:19.744Z,4.40
2019-06-01T00:02:52.573Z,3.80
2019-06-01T00:05:16.442Z,4.15
2019-06-01T00:07:43.052Z,3.65
2019-06-01T00:10:09.829Z,3.58
2019-06-01T00:12:36.385Z,3.27
2019-06-01T00:15:06.300Z,3.67
2019-06-01T00:17:33.035Z,4.22
2019-06-01T00:19:59.680Z,4.45
2019-06-01T00:22:26.241Z,4.00
2019-06-01T00:24:52.813Z,4.50
2019-06-01T00:27:19.498Z,4.12
2019-06-01T00:29:46.790Z,4.60
2019-06-01T00:32:13.762Z,3.47
2019-06-01T00:34:41.265Z,3.77
2019-06-01T00:37:08.085Z,3.90
2019-06-01T00:39:34.721Z,3.98
2019-06-01T00:42:01.397Z,3.72
2019-06-01T00:44:28.081Z,4.28
2019-06-01T00:46:54.631Z,4.00
2019-06-01T00:49:21.160Z,4.22
2019-06-01T00:51:49.004Z,4.40
2019-06-01T00:54:15.705Z,4.60
2019-06-01T00:56:43.470Z,3.50
2019-06-01T00:59:10.128Z,3.50
2019-06-01T01:01:36.657Z,3.20
2019-06-01T01:04:03.352Z,4.00
2019-06-01T01:06:29.986Z,4.35
2019-06-01T01:08:56.764Z,3.47
2019-06-01T01:11:23.444Z,3.30
2019-06-01T01:13:51.327Z,3.25
2019-06-01T01:16:17.950Z,4.15
2019-06-01T01:18:45.595Z,3.50
2019-06-01T01:21:12.357Z,3.70
2019-06-01T01:23:38.924Z,4.20
2019-06-01T01:26:05.505Z,3.90
2019-06-01T01:28:32.054Z,4.42
2019-06-01T01:31:11.773Z,4.08
2019-06-01T01:33:26.940Z,5.15
2019-06-01T01:35:54.196Z,4.70
2019-06-01T01:38:20.962Z,4.78
2019-06-01T01:40:47.956Z,4.12
2019-06-01T01:43:14.675Z,5.00
2019-06-01T01:45:41.540Z,4.40
2019-06-01T01:48:08.085Z,4.05
2019-06-01T01:50:34.734Z,3.72
2019-06-01T01:53:01.286Z,4.15
2019-06-01T01:55:27.816Z,3.77
2019-06-01T01:57:55.393Z,4.67
2019-06-01T02:00:44.601Z,3.72
2019-06-01T02:03:11.870Z,4.15
2019-06-01T02:05:38.504Z,3.77
2019-06-01T02:08:05.792Z,4.15
2019-06-01T02:10:32.779Z,4.40
2019-06-01T02:12:59.653Z,3.95
2019-06-01T02:15:26.479Z,4.12
2019-06-01T02:17:53.924Z,4.17
2019-06-01T02:20:20.666Z,4.20
2019-06-01T02:22:47.235Z,3.70
2019-06-01T02:25:13.986Z,3.70
2019-06-01T02:27:40.535Z,3.92
2019-06-01T02:30:07.381Z,3.98
2019-06-01T02:32:33.955Z,5.67
2019-06-01T02:35:02.376Z,4.70
2019-06-01T02:37:28.912Z,4.92
2019-06-01T02:39:56.757Z,4.80
2019-06-01T02:42:23.395Z,4.37
2019-06-01T02:44:49.934Z,4.47
2019-06-01T02:47:16.505Z,4.90
2019-06-01T02:49:43.136Z,5.15
2019-06-01T02:52:09.694Z,4.30
2019-06-01T02:54:36.257Z,4.30
2019-06-01T02:57:03.069Z,4.80
2019-06-01T02:59:30.631Z,4.42
2019-06-01T03:02:03.364Z,5.97
2019-06-01T03:04:25.845Z,5.90
2019-06-01T03:06:53.285Z,5.78
2019-06-01T03:09:22.040Z,6.45
2019-06-01T03:11:50.339Z,6.70
2019-06-01T03:14:18.612Z,6.10
2019-06-01T03:16:48.977Z,5.10
2019-06-01T03:19:17.901Z,5.45
2019-06-01T03:21:47.858Z,4.85
2019-06-01T03:24:14.422Z,4.85
2019-06-01T03:26:43.492Z,5.25
2019-06-01T03:29:16.201Z,4.85
2019-06-01T03:31:43.609Z,4.10
2019-06-01T03:34:11.446Z,5.00
2019-06-01T03:36:38.520Z,4.20
2019-06-01T03:39:06.067Z,4.75
2019-06-01T03:41:33.087Z,4.97
2019-06-01T03:44:00.452Z,4.50
2019-06-01T03:46:28.076Z,4.92
2019-06-01T03:48:54.633Z,4.78
2019-06-01T03:51:21.202Z,5.33
2019-06-01T03:53:47.747Z,5.90
2019-06-01T03:56:14.307Z,4.75
2019-06-01T03:58:40.870Z,4.70
2019-06-01T04:01:07.435Z,4.30
2019-06-01T04:03:34.000Z,4.37
2019-06-01T04:06:01.195Z,4.90
2019-06-01T04:08:29.100Z,5.25
2019-06-01T04:10:55.642Z,5.08
2019-06-01T04:13:22.191Z,4.80
2019-06-01T04:15:48.975Z,4.65
2019-06-01T04:18:15.531Z,4.90
2019-06-01T04:20:42.091Z,4.80
2019-06-01T04:23:08.739Z,5.70
2019-06-01T04:25:35.302Z,6.90
2019-06-01T04:28:02.235Z,5.60
2019-06-01T04:30:29.832Z,6.20
2019-06-01T04:32:56.392Z,6.20
2019-06-01T04:35:23.068Z,8.18
2019-06-01T04:37:49.686Z,7.10
2019-06-01T04:40:16.243Z,7.58
2019-06-01T04:42:43.394Z,7.92
2019-06-01T04:45:10.871Z,7.87
2019-06-01T04:47:38.548Z,8.15
2019-06-01T04:50:06.705Z,7.30
2019-06-01T04:52:33.339Z,6.35
2019-06-01T04:54:59.990Z,7.15
2019-06-01T04:57:26.531Z,7.03
2019-06-01T04:59:53.108Z,5.78
2019-06-01T05:02:19.658Z,6.00
2019-06-01T05:04:46.316Z,5.75
2019-06-01T05:07:13.450Z,5.78
2019-06-01T05:09:40.114Z,5.80
2019-06-01T05:12:07.479Z,5.97
2019-06-01T05:14:34.534Z,5.65
2019-06-01T05:17:01.571Z,7.00
2019-06-01T05:19:28.267Z,7.03
2019-06-01T05:21:54.789Z,8.25
2019-06-01T05:24:21.340Z,8.95
2019-06-01T05:26:47.889Z,8.53
2019-06-01T05:29:15.647Z,8.60
2019-06-01T05:31:42.490Z,7.90
2019-06-01T05:34:09.694Z,7.87
2019-06-01T05:36:36.415Z,7.85
2019-06-01T05:39:05.698Z,8.00
2019-06-01T05:41:32.759Z,8.90
2019-06-01T05:44:00.628Z,7.55
2019-06-01T05:46:28.405Z,7.67
2019-06-01T05:48:55.006Z,8.53
2019-06-01T05:51:22.974Z,9.20
2019-06-01T05:53:49.643Z,8.73
2019-06-01T05:56:16.859Z,10.18
2019-06-01T05:58:43.626Z,10.85
2019-06-01T06:01:10.398Z,9.13
2019-06-01T06:03:40.397Z,9.40
2019-06-01T06:06:05.367Z,8.65
2019-06-01T06:08:31.949Z,9.00
2019-06-01T06:10:58.547Z,8.38
2019-06-01T06:13:25.226Z,8.08
2019-06-01T06:15:51.807Z,7.53
2019-06-01T06:18:18.510Z,7.95
2019-06-01T06:20:45.065Z,7.90
2019-06-01T06:23:12.242Z,8.20
2019-06-01T06:25:41.056Z,8.00
2019-06-01T06:28:07.281Z,8.65
2019-06-01T06:30:33.843Z,7.62
2019-06-01T06:33:00.489Z,8.05
2019-06-01T06:35:27.031Z,7.37
2019-06-01T06:37:53.703Z,7.30
2019-06-01T06:40:22.146Z,7.67
2019-06-01T06:42:48.827Z,6.78
2019-06-01T06:45:16.580Z,7.08
2019-06-01T06:47:43.259Z,6.42
2019-06-01T06:50:14.900Z,7.08
2019-06-01T06:52:42.007Z,6.75
2019-06-01T06:55:08.675Z,6.55
2019-06-01T06:57:35.224Z,6.53
2019-06-01T07:00:04.261Z,6.37
2019-06-01T07:02:30.910Z,5.90
2019-06-01T07:04:57.439Z,6.17
2019-06-01T07:07:24.004Z,5.87
2019-06-01T07:09:50.586Z,6.53
2019-06-01T07:12:17.138Z,6.28
2019-06-01T07:14:43.709Z,6.25
2019-06-01T07:17:10.295Z,6.97
2019-06-01T07:19:36.831Z,6.92
2019-06-01T07:22:03.490Z,7.30
2019-06-01T07:24:30.035Z,7.50
2019-06-01T07:26:56.643Z,7.65
2019-06-01T07:29:24.193Z,7.67
2019-06-01T07:31:50.979Z,7.62
2019-06-01T07:34:30.944Z,6.95
2019-06-01T07:36:45.898Z,7.00
2019-06-01T07:39:12.417Z,6.80
2019-06-01T07:41:39.006Z,6.90
2019-06-01T07:44:05.652Z,6.22
2019-06-01T07:46:33.249Z,6.75
2019-06-01T07:48:59.969Z,7.08
2019-06-01T07:51:27.417Z,6.87
2019-06-01T07:53:54.501Z,6.58
2019-06-01T07:56:22.498Z,5.95
2019-06-01T07:58:49.458Z,5.25
2019-06-01T08:01:16.021Z,5.53
2019-06-01T08:03:42.578Z,5.45
2019-06-01T08:06:09.105Z,5.60
2019-06-01T08:08:35.683Z,5.53
2019-06-01T08:11:02.326Z,5.75
2019-06-01T08:13:33.136Z,4.97
2019-06-01T08:15:57.250Z,5.30
2019-06-01T08:18:24.306Z,5.37
2019-06-01T08:20:50.851Z,5.28
2019-06-01T08:23:17.426Z,5.30
2019-06-01T08:25:44.090Z,4.97
2019-06-01T08:28:10.600Z,4.87
2019-06-01T08:30:37.198Z,5.03
2019-06-01T08:33:03.834Z,5.30
2019-06-01T08:35:31.177Z,5.45
2019-06-01T08:37:57.945Z,4.92
2019-06-01T08:40:25.238Z,4.25
2019-06-01T08:42:52.137Z,3.62
2019-06-01T08:45:18.903Z,3.87
2019-06-01T08:47:53.154Z,3.12
2019-06-01T08:50:19.842Z,2.50
2019-06-01T08:52:47.215Z,2.17
2019-06-01T08:55:13.957Z,2.40
2019-06-01T08:57:40.612Z,2.17
2019-06-01T09:00:07.845Z,5.35
2019-06-01T09:02:34.948Z,2.10
2019-06-01T09:05:04.382Z,10.82
2019-06-01T09:07:31.104Z,2.70
2019-06-01T09:09:57.827Z,1.90
2019-06-01T09:12:25.115Z,2.52
2019-06-01T09:14:52.605Z,5.42
2019-06-01T09:17:19.181Z,2.83
2019-06-01T09:19:46.096Z,2.33
2019-06-01T09:22:12.654Z,2.22
2019-06-01T09:24:39.318Z,2.12
2019-06-01T09:27:05.902Z,1.98
2019-06-01T09:29:32.423Z,1.77
2019-06-01T09:31:58.954Z,1.62
2019-06-01T09:34:26.165Z,1.55
2019-06-01T09:36:55.481Z,1.60
2019-06-01T09:39:21.327Z,1.20
2019-06-01T09:41:47.994Z,1.55
2019-06-01T09:44:14.539Z,1.50
2019-06-01T09:46:41.103Z,1.60
2019-06-01T09:49:07.695Z,1.57
2019-06-01T09:51:35.474Z,1.30
2019-06-01T09:54:02.808Z,1.40
2019-06-01T09:56:31.728Z,1.50
2019-06-01T09:58:58.781Z,1.52
2019-06-01T10:01:25.452Z,1.20
2019-06-01T10:03:52.115Z,1.15
2019-06-01T10:06:18.721Z,1.30
2019-06-01T10:08:45.260Z,1.27
2019-06-01T10:11:11.873Z,1.15
2019-06-01T10:13:38.520Z,1.20
2019-06-01T10:16:06.358Z,1.30
2019-06-01T10:18:32.953Z,1.40
2019-06-01T10:20:59.487Z,1.50
2019-06-01T10:23:26.038Z,1.20
2019-06-01T10:25:53.119Z,1.20
2019-06-01T10:28:19.663Z,1.50
2019-06-01T10:30:46.323Z,1.30
2019-06-01T10:33:13.096Z,1.40
2019-06-01T10:35:39.651Z,1.37
2019-06-01T10:38:06.330Z,1.30
2019-06-01T10:40:33.407Z,0.95
2019-06-01T10:43:00.314Z,1.20
2019-06-01T10:45:27.016Z,1.47
2019-06-01T10:47:53.593Z,1.50
2019-06-01T10:50:20.100Z,1.10
2019-06-01T10:52:46.652Z,1.40
2019-06-01T10:55:13.534Z,1.40
2019-06-01T10:57:40.610Z,1.17
2019-06-01T11:00:09.488Z,1.47
2019-06-01T11:02:36.632Z,1.37
2019-06-01T11:05:06.718Z,1.40
2019-06-01T11:07:33.275Z,1.45
2019-06-01T11:09:59.844Z,1.40
2019-06-01T11:12:26.378Z,1.60
2019-06-01T11:14:52.932Z,1.40
2019-06-01T11:17:19.498Z,1.32
2019-06-01T11:19:46.137Z,1.47
2019-06-01T11:22:12.677Z,1.27
2019-06-01T11:24:39.530Z,1.30
2019-06-01T11:27:06.282Z,1.80
2019-06-01T11:29:34.654Z,3.08
2019-06-01T11:32:01.176Z,1.95
2019-06-01T11:34:27.706Z,1.77
2019-06-01T11:37:05.059Z,1.25
2019-06-01T11:39:22.795Z,1.20
2019-06-01T11:41:49.355Z,1.90
2019-06-01T11:44:15.913Z,1.20
2019-06-01T11:46:42.994Z,1.30
2019-06-01T11:49:09.609Z,1.27
2019-06-01T11:51:36.963Z,1.20
2019-06-01T11:54:04.840Z,1.27
2019-06-01T11:56:31.415Z,1.07
2019-06-01T11:58:57.987Z,0.98
2019-06-01T12:01:24.546Z,1.10
2019-06-01T12:03:51.225Z,1.10
2019-06-01T12:06:17.903Z,1.10
2019-06-01T12:08:44.544Z,1.10
2019-06-01T12:11:11.082Z,0.98
2019-06-01T12:13:38.118Z,1.22
2019-06-01T12:16:04.838Z,1.40
2019-06-01T12:18:31.401Z,1.50
2019-06-01T12:20:58.052Z,1.27
2019-06-01T12:23:24.816Z,1.80
2019-06-01T12:25:51.372Z,1.00
2019-06-01T12:28:17.945Z,1.17
2019-06-01T12:30:45.731Z,1.00
2019-06-01T12:33:12.751Z,0.95
2019-06-01T12:35:39.874Z,1.35
2019-06-01T12:38:07.223Z,1.12
2019-06-01T12:40:33.863Z,1.42
2019-06-01T12:43:00.410Z,1.10
2019-06-01T12:45:27.096Z,1.07
2019-06-01T12:47:58.122Z,1.00
2019-06-01T12:50:22.542Z,1.12
2019-06-01T12:52:49.320Z,1.25
2019-06-01T12:55:15.926Z,1.22
2019-06-01T12:57:42.941Z,1.10
2019-06-01T13:00:10.221Z,0.90
2019-06-01T13:02:36.778Z,1.00
2019-06-01T13:05:06.549Z,1.10
2019-06-01T13:07:33.316Z,0.80
2019-06-01T13:09:59.920Z,1.02
2019-06-01T13:12:26.555Z,0.80
2019-06-01T13:14:53.146Z,0.80
2019-06-01T13:17:19.719Z,1.00
2019-06-01T13:19:47.355Z,1.10
2019-06-01T13:22:14.226Z,1.00
2019-06-01T13:24:41.531Z,1.15
2019-06-01T13:27:08.410Z,0.90
2019-06-01T13:29:34.973Z,0.82
2019-06-01T13:32:01.529Z,0.70
2019-06-01T13:34:28.078Z,0.78
2019-06-01T13:36:56.050Z,0.90
2019-06-01T13:39:22.588Z,0.90
2019-06-01T13:41:49.582Z,0.82
2019-06-01T13:44:16.200Z,0.80
2019-06-01T13:46:43.460Z,0.88
2019-06-01T13:49:10.176Z,0.78
2019-06-01T13:51:36.725Z,0.75
2019-06-01T13:54:03.486Z,0.75
2019-06-01T13:56:30.064Z,0.70
2019-06-01T13:58:56.666Z,1.10
2019-06-01T14:01:23.363Z,0.90
2019-06-01T14:03:52.057Z,0.90
2019-06-01T14:06:18.475Z,0.90
2019-06-01T14:08:45.069Z,0.90
2019-06-01T14:11:11.656Z,0.90
2019-06-01T14:13:38.202Z,0.80
2019-06-01T14:16:04.771Z,0.80
2019-06-01T14:18:31.402Z,0.98
2019-06-01T14:20:58.195Z,0.80
2019-06-01T14:23:24.729Z,0.90
2019-06-01T14:25:52.187Z,0.78
2019-06-01T14:28:19.141Z,0.90
2019-06-01T14:30:46.177Z,1.00
2019-06-01T14:33:12.850Z,1.40
2019-06-01T14:35:39.417Z,0.90
2019-06-01T14:38:05.973Z,1.00
2019-06-01T14:40:32.529Z,1.20
2019-06-01T14:42:59.285Z,1.10
2019-06-01T14:45:26.042Z,0.88
2019-06-01T14:47:53.491Z,1.05
2019-06-01T14:50:20.197Z,1.17
2019-06-01T14:52:47.650Z,1.30
2019-06-01T14:55:14.602Z,1.07
2019-06-01T14:57:41.171Z,1.02
2019-06-01T15:00:09.551Z,1.20
2019-06-01T15:02:36.324Z,1.00
2019-06-01T15:05:06.099Z,1.17
2019-06-01T15:07:32.654Z,1.47
2019-06-01T15:09:59.220Z,1.02
2019-06-01T15:12:25.810Z,1.25
2019-06-01T15:14:52.975Z,1.20
2019-06-01T15:17:19.856Z,0.88
2019-06-01T15:19:46.428Z,0.93
2019-06-01T15:22:12.981Z,0.95
2019-06-01T15:24:39.615Z,1.02
2019-06-01T15:27:06.178Z,1.20
2019-06-01T15:29:32.759Z,1.05
2019-06-01T15:32:00.136Z,0.90
2019-06-01T15:34:26.972Z,0.90
2019-06-01T15:36:53.685Z,1.20
2019-06-01T15:39:24.710Z,1.40
2019-06-01T15:41:48.836Z,1.20
2019-06-01T15:44:15.408Z,1.20
2019-06-01T15:46:41.976Z,1.17
2019-06-01T15:49:09.082Z,1.35
2019-06-01T15:51:35.658Z,1.57
2019-06-01T15:54:03.229Z,1.20
2019-06-01T15:56:30.016Z,1.12
2019-06-01T15:58:58.152Z,1.07
2019-06-01T16:01:24.898Z,0.93
2019-06-01T16:03:53.194Z,1.00
2019-06-01T16:06:19.810Z,1.00
2019-06-01T16:08:47.167Z,0.98
2019-06-01T16:11:14.831Z,0.93
2019-06-01T16:13:41.486Z,0.80
2019-06-01T16:16:08.071Z,0.80
2019-06-01T16:18:34.701Z,0.90
2019-06-01T16:21:02.272Z,1.10
2019-06-01T16:23:29.065Z,0.70
2019-06-01T16:26:07.259Z,0.90
2019-06-01T16:28:24.012Z,0.72
2019-06-01T16:30:50.589Z,0.70
2019-06-01T16:33:17.387Z,1.10
2019-06-01T16:35:44.064Z,1.12
2019-06-01T16:38:10.709Z,0.60
2019-06-01T16:40:37.401Z,0.80
2019-06-01T16:43:05.727Z,0.90
2019-06-01T16:45:33.988Z,0.82
2019-06-01T16:48:01.633Z,0.90
2019-06-01T16:50:28.431Z,0.60
2019-06-01T16:52:55.873Z,1.12
2019-06-01T16:55:22.657Z,1.10
2019-06-01T16:57:49.323Z,0.78
2019-06-01T17:00:16.435Z,0.68
2019-06-01T17:02:43.221Z,0.80
2019-06-01T17:05:11.091Z,0.75
2019-06-01T17:07:39.979Z,0.80
2019-06-01T17:10:23.919Z,0.90
2019-06-01T17:12:36.974Z,1.37
2019-06-01T17:15:07.127Z,1.22
2019-06-01T17:17:34.184Z,1.32
2019-06-01T17:20:05.302Z,1.10
2019-06-01T17:22:34.353Z,1.00
2019-06-01T17:25:01.827Z,1.10
2019-06-01T17:27:28.937Z,1.02
2019-06-01T17:29:58.087Z,0.95
2019-06-01T17:32:26.769Z,1.20
2019-06-01T17:34:54.567Z,1.20
2019-06-01T17:37:21.248Z,1.00
2019-06-01T17:39:49.112Z,1.20
2019-06-01T17:42:17.305Z,1.35
2019-06-01T17:44:46.048Z,1.15
2019-06-01T17:47:12.626Z,1.35
2019-06-01T17:49:39.341Z,1.60
2019-06-01T17:52:06.126Z,1.30
2019-06-01T17:54:32.769Z,1.40
2019-06-01T17:56:59.331Z,1.10
2019-06-01T17:59:26.098Z,1.30
2019-06-01T18:01:52.743Z,1.30
2019-06-01T18:04:19.468Z,1.57
2019-06-01T18:06:47.350Z,1.30
2019-06-01T18:09:14.144Z,1.50
2019-06-01T18:11:41.290Z,1.60
2019-06-01T18:14:10.247Z,1.37
2019-06-01T18:16:37.186Z,1.42
2019-06-01T18:19:04.166Z,1.40
2019-06-01T18:21:33.425Z,1.40
2019-06-01T18:24:12.811Z,1.42
2019-06-01T18:26:39.669Z,1.65
2019-06-01T18:29:06.620Z,1.30
2019-06-01T18:31:33.245Z,1.50
2019-06-01T18:34:00.128Z,1.50
2019-06-01T18:36:26.710Z,1.65
2019-06-01T18:38:53.265Z,1.70
2019-06-01T18:41:20.297Z,1.20
2019-06-01T18:43:47.150Z,1.60
2019-06-01T18:46:14.423Z,1.50
2019-06-01T18:48:45.940Z,1.30
2019-06-01T18:51:14.789Z,2.05
2019-06-01T18:53:41.695Z,2.40
2019-06-01T18:56:10.165Z,1.70
2019-06-01T18:58:37.127Z,1.42
2019-06-01T19:01:04.753Z,1.72
2019-06-01T19:03:31.423Z,1.30
2019-06-01T19:06:21.956Z,1.40
2019-06-01T19:08:52.433Z,1.65
2019-06-01T19:11:34.731Z,1.77
2019-06-01T19:33:42.512Z,2.17
2019-06-01T19:36:21.580Z,2.30
2019-06-01T19:38:49.856Z,2.30
2019-06-01T19:50:34.677Z,2.40
2019-06-01T19:53:01.803Z,1.95
2019-06-01T19:55:28.816Z,2.20
2019-06-01T19:57:55.678Z,2.05
2019-06-01T20:00:22.507Z,1.72
2019-06-01T20:02:49.419Z,2.02
2019-06-01T20:05:16.690Z,2.30
2019-06-01T20:07:43.534Z,2.22
2019-06-01T20:10:12.341Z,2.27
2019-06-01T20:12:44.428Z,2.77
2019-06-01T20:15:17.457Z,2.10
2019-06-01T20:17:45.498Z,2.37
2019-06-01T20:20:12.738Z,2.50
2019-06-01T20:25:31.600Z,2.60
2019-06-01T20:28:05.169Z,2.40
2019-06-01T20:57:43.931Z,3.12
2019-06-01T21:00:19.925Z,2.80
2019-06-01T21:02:47.673Z,2.80
2019-06-01T21:05:19.870Z,2.50
2019-06-01T21:07:48.843Z,2.90
2019-06-01T21:10:20.455Z,2.00
2019-06-01T21:12:50.711Z,2.20
2019-06-01T21:15:17.634Z,2.08
2019-06-01T21:17:51.443Z,2.05
2019-06-01T21:20:28.492Z,2.12
2019-06-01T21:22:52.077Z,2.83
2019-06-01T21:25:20.935Z,2.77
2019-06-01T21:27:48.327Z,2.90
2019-06-01T21:30:18.780Z,2.80
2019-06-01T21:32:46.522Z,2.87
2019-06-01T21:35:15.138Z,2.95
2019-06-01T21:37:42.681Z,2.87
2019-06-01T21:40:26.437Z,3.25
2019-06-01T21:43:06.834Z,2.65
2019-06-01T21:45:24.266Z,2.40
2019-06-01T21:47:52.457Z,2.05
2019-06-01T21:50:22.124Z,2.08
2019-06-01T21:52:50.129Z,2.02
2019-06-01T21:55:20.624Z,3.25
2019-06-01T21:57:52.610Z,3.00
2019-06-01T22:00:46.344Z,2.90
2019-06-01T22:09:21.822Z,3.20
2019-06-01T22:11:54.496Z,3.00
2019-06-01T22:14:26.029Z,2.85
2019-06-01T22:16:57.690Z,2.90
2019-06-01T22:19:38.767Z,2.27
2019-06-01T22:24:54.759Z,2.52
2019-06-01T22:33:57.312Z,2.90
2019-06-01T22:36:25.334Z,2.33
2019-06-01T22:38:58.837Z,3.83
2019-06-01T22:41:26.282Z,3.50
2019-06-01T22:43:55.496Z,3.75
2019-06-01T22:46:22.728Z,3.67
2019-06-01T22:48:50.088Z,3.37
2019-06-01T22:51:16.687Z,3.17
2019-06-01T22:53:44.623Z,2.80
2019-06-01T22:56:12.043Z,2.90
2019-06-01T22:58:39.103Z,3.47
2019-06-01T23:01:06.211Z,3.30
2019-06-01T23:03:34.462Z,3.62
2019-06-01T23:06:04.009Z,3.10
2019-06-01T23:08:31.958Z,2.83
2019-06-01T23:10:58.861Z,2.60
2019-06-01T23:13:26.210Z,2.75
2019-06-01T23:15:53.176Z,2.92
2019-06-01T23:18:19.954Z,2.40
2019-06-01T23:20:46.753Z,2.98
2019-06-01T23:23:13.555Z,3.15
2019-06-01T23:25:40.420Z,2.87
2019-06-01T23:28:07.180Z,3.05
2019-06-01T23:30:34.106Z,3.20
2019-06-01T23:33:00.837Z,3.27
2019-06-01T23:35:28.524Z,3.20
2019-06-01T23:37:55.150Z,3.00
2019-06-01T23:40:22.442Z,2.70
2019-06-01T23:42:49.269Z,2.60
2019-06-01T23:45:32.980Z,3.12
2019-06-01T23:47:59.817Z,2.80
2019-06-01T23:50:27.167Z,2.80
2019-06-01T23:52:54.071Z,2.80
2019-06-01T23:55:20.720Z,2.60
2019-06-01T23:57:48.036Z,2.00
